Time;durP1;ratioP1;P1;durP2;ratioP2;P2;SDS_P1;SDS_P2;PMS_P1;PMS_P2;Temp;Humidity;BMP_temperature;BMP_pressure;BME280_temperature;BME280_humidity;BME280_pressure;Samples;Min_cycle;Max_cycle;Signal;HPM_P1;HPM_P2
2024/02/14 00:00:00;;;;;;;;;7.67;6.00;;;;;-147.14;100.00;58812.66;5034712;28;45329;-46
2024/02/14 00:02:26;;;;;;;;;7.33;6.00;;;;;-147.14;100.00;58812.66;5042718;28;45616;-47
2024/02/14 00:04:55;;;;;;;;;6.33;6.33;;;;;-147.14;100.00;58812.66;5060302;28;47328;-49
2024/02/14 00:07:20;;;;;;;;;9.67;4.67;;;;;-147.14;100.00;58812.66;5058467;28;45305;-46
2024/02/14 00:09:47;;;;;;;;;5.00;4.33;;;;;-147.14;100.00;58812.66;5058893;28;71823;-50
2024/02/14 00:12:12;;;;;;;;;5.00;5.00;;;;;-147.14;100.00;58812.66;5045966;28;45230;-46
2024/02/14 00:14:38;;;;;;;;;6.00;4.67;;;;;-147.14;100.00;58812.66;5048213;28;58770;-48
2024/02/14 00:17:04;;;;;;;;;6.33;6.33;;;;;-147.14;100.00;58812.66;5041886;28;46357;-47
2024/02/14 00:19:30;;;;;;;;;6.33;6.00;;;;;-147.14;100.00;58812.66;5041282;28;45457;-45
2024/02/14 00:21:56;;;;;;;;;6.67;5.67;;;;;-147.14;100.00;58812.66;5041883;28;45362;-46
2024/02/14 00:24:22;;;;;;;;;6.00;6.00;;;;;-147.14;100.00;58812.66;5040291;28;69154;-47
2024/02/14 00:26:48;;;;;;;;;7.00;5.67;;;;;-147.14;100.00;58812.66;5054084;28;46168;-48
2024/02/14 00:29:14;;;;;;;;;6.00;6.00;;;;;-147.14;100.00;58812.66;5041675;28;45379;-46
2024/02/14 00:31:39;;;;;;;;;6.33;5.67;;;;;-147.14;100.00;58812.66;5056446;28;63740;-47
2024/02/14 00:34:04;;;;;;;;;5.67;5.00;;;;;-147.14;100.00;58812.66;5058503;28;66888;-47
2024/02/14 00:36:30;;;;;;;;;5.67;5.67;;;;;-147.14;100.00;58812.66;5057018;28;46088;-48
2024/02/14 00:38:55;;;;;;;;;5.33;4.00;;;;;-147.14;100.00;58812.66;5057811;28;68950;-48
2024/02/14 00:41:20;;;;;;;;;6.67;5.33;;;;;-147.14;100.00;58812.66;5056131;28;68286;-47
2024/02/14 00:43:46;;;;;;;;;5.00;5.00;;;;;-147.14;100.00;58812.66;5058631;28;69537;-46
2024/02/14 00:46:17;;;;;;;;;6.00;6.00;;;;;-147.14;100.00;58812.66;5039873;28;75532;-47
2024/02/14 00:48:44;;;;;;;;;6.33;6.00;;;;;-147.14;100.00;58812.66;5040328;28;73868;-45
2024/02/14 00:51:09;;;;;;;;;5.67;5.67;;;;;-147.14;100.00;58812.66;5044066;28;45406;-47
2024/02/14 00:53:35;;;;;;;;;10.00;7.33;;;;;-147.14;100.00;58812.66;5051505;28;45486;-46
2024/02/14 00:56:00;;;;;;;;;5.00;5.00;;;;;-147.14;100.00;58812.66;5040362;28;75494;-50
2024/02/14 00:58:25;;;;;;;;;7.00;6.00;;;;;-147.14;100.00;58812.66;5040234;28;60548;-45
2024/02/14 01:00:51;;;;;;;;;5.00;5.00;;;;;-147.14;100.00;58812.66;5029859;28;66477;-47
2024/02/14 01:03:17;;;;;;;;;6.67;6.67;;;;;-147.14;100.00;58812.66;5040854;28;45525;-47
2024/02/14 01:05:43;;;;;;;;;5.33;5.33;;;;;-147.14;100.00;58812.66;5037784;28;47791;-46
2024/02/14 01:08:08;;;;;;;;;7.00;7.00;;;;;-147.14;100.00;58812.66;5051772;28;45333;-49
2024/02/14 01:10:33;;;;;;;;;8.67;6.00;;;;;-147.14;100.00;58812.66;5055914;28;69327;-45
2024/02/14 01:12:59;;;;;;;;;7.67;7.67;;;;;-147.14;100.00;58812.66;5057438;28;68549;-44
2024/02/14 01:15:24;;;;;;;;;8.67;7.33;;;;;-147.14;100.00;58812.66;5044354;28;72497;-46
2024/02/14 01:17:49;;;;;;;;;9.33;7.67;;;;;-147.14;100.00;58812.66;5057501;28;62513;-45
2024/02/14 01:20:15;;;;;;;;;6.33;6.33;;;;;-147.14;100.00;58812.66;5034998;28;45438;-47
2024/02/14 01:22:40;;;;;;;;;8.00;6.00;;;;;-147.14;100.00;58812.66;5051794;28;45478;-47
2024/02/14 01:25:06;;;;;;;;;5.67;5.67;;;;;-147.14;100.00;58812.66;5051473;28;46030;-46
2024/02/14 01:27:32;;;;;;;;;7.33;7.33;;;;;-147.14;100.00;58812.66;5033920;28;45396;-46
2024/02/14 01:29:58;;;;;;;;;4.33;4.33;;;;;-147.14;100.00;58812.66;5034981;28;45543;-47
2024/02/14 01:32:23;;;;;;;;;5.67;5.67;;;;;-147.14;100.00;58812.66;5051587;28;45272;-48
2024/02/14 01:34:48;;;;;;;;;4.00;2.33;;;;;-147.14;100.00;58812.66;5056326;28;48182;-45
2024/02/14 01:37:14;;;;;;;;;9.67;7.33;;;;;-147.14;100.00;58812.66;5057905;28;45351;-47
2024/02/14 01:39:39;;;;;;;;;6.67;6.67;;;;;-147.14;100.00;58812.66;5037505;28;64594;-46
2024/02/14 01:42:06;;;;;;;;;7.00;6.00;;;;;-147.14;100.00;58812.66;5038735;28;69315;-47
2024/02/14 01:44:32;;;;;;;;;8.33;7.33;;;;;-147.14;100.00;58812.66;5051672;28;47104;-49
2024/02/14 01:46:58;;;;;;;;;6.00;6.00;;;;;-147.14;100.00;58812.66;5040356;28;45423;-46
2024/02/14 01:49:23;;;;;;;;;7.33;7.33;;;;;-147.14;100.00;58812.66;5039650;28;45242;-47
2024/02/14 01:51:49;;;;;;;;;10.00;6.67;;;;;-147.14;100.00;58812.66;5039491;28;70418;-47
2024/02/14 01:54:16;;;;;;;;;8.00;7.00;;;;;-147.14;100.00;58812.66;5022339;28;45591;-47
2024/02/14 01:56:42;;;;;;;;;7.33;7.33;;;;;-147.14;100.00;58812.66;5032376;28;45485;-46
2024/02/14 01:59:09;;;;;;;;;8.67;8.00;;;;;-147.14;100.00;58812.66;5039643;28;68422;-45
2024/02/14 02:01:35;;;;;;;;;10.00;7.00;;;;;-147.14;100.00;58812.66;5057336;28;52130;-48
2024/02/14 02:04:01;;;;;;;;;6.00;6.00;;;;;-147.14;100.00;58812.66;5042282;28;46045;-45
2024/02/14 02:06:27;;;;;;;;;7.67;6.00;;;;;-147.14;100.00;58812.66;5038882;28;68137;-45
2024/02/14 02:08:52;;;;;;;;;8.33;7.00;;;;;-147.14;100.00;58812.66;5040579;28;45579;-48
2024/02/14 02:11:18;;;;;;;;;6.33;6.00;;;;;-147.14;100.00;58812.66;5038485;28;70322;-46
2024/02/14 02:13:44;;;;;;;;;6.33;6.00;;;;;-147.14;100.00;58812.66;5051465;28;46935;-46
2024/02/14 02:16:09;;;;;;;;;8.33;7.33;;;;;-147.14;100.00;58812.66;5038346;28;72904;-45
2024/02/14 02:18:34;;;;;;;;;7.33;7.33;;;;;-147.14;100.00;58812.66;5052626;28;45492;-46
2024/02/14 02:21:03;;;;;;;;;9.00;9.00;;;;;-147.14;100.00;58812.66;5040048;28;45336;-45
2024/02/14 02:23:29;;;;;;;;;6.00;5.00;;;;;-147.14;100.00;58812.66;5008175;28;46096;-48
2024/02/14 02:25:54;;;;;;;;;6.67;6.67;;;;;-147.14;100.00;58812.66;5049052;28;49122;-45
2024/02/14 02:28:19;;;;;;;;;9.00;7.00;;;;;-147.14;100.00;58812.66;5052079;28;68286;-45
2024/02/14 02:30:46;;;;;;;;;8.33;7.00;;;;;-147.14;100.00;58812.66;5048035;28;70540;-47
2024/02/14 02:33:12;;;;;;;;;7.67;7.67;;;;;-147.14;100.00;58812.66;5044529;28;45710;-47
2024/02/14 02:35:37;;;;;;;;;5.00;5.00;;;;;-147.14;100.00;58812.66;5040716;28;45337;-47
2024/02/14 02:38:03;;;;;;;;;7.67;7.67;;;;;-147.14;100.00;58812.66;5032730;28;68231;-46
2024/02/14 02:40:28;;;;;;;;;7.33;7.33;;;;;-147.14;100.00;58812.66;5040352;28;45568;-46
2024/02/14 02:42:54;;;;;;;;;5.33;5.33;;;;;-147.14;100.00;58812.66;5037573;28;47258;-46
2024/02/14 02:45:19;;;;;;;;;7.00;6.00;;;;;-147.14;100.00;58812.66;5048243;28;45366;-47
2024/02/14 02:47:45;;;;;;;;;8.00;8.00;;;;;-147.14;100.00;58812.66;5038731;28;67947;-49
2024/02/14 02:50:10;;;;;;;;;7.33;7.00;;;;;-147.14;100.00;58812.66;5039244;28;69985;-45
2024/02/14 02:52:35;;;;;;;;;6.33;5.33;;;;;-147.14;100.00;58812.66;5042421;28;46024;-49
2024/02/14 02:55:01;;;;;;;;;6.00;6.00;;;;;-147.14;100.00;58812.66;5057023;28;72180;-49
2024/02/14 02:57:28;;;;;;;;;5.00;5.00;;;;;-147.14;100.00;58812.66;5056187;28;45506;-50
2024/02/14 02:59:54;;;;;;;;;9.00;7.00;;;;;-147.14;100.00;58812.66;5051817;28;45599;-46
2024/02/14 03:02:19;;;;;;;;;8.00;6.00;;;;;-147.14;100.00;58812.66;5021662;28;47421;-46
2024/02/14 03:04:45;;;;;;;;;5.67;5.67;;;;;-147.14;100.00;58812.66;5026960;28;45414;-48
2024/02/14 03:07:10;;;;;;;;;9.33;7.00;;;;;-147.14;100.00;58812.66;5039073;28;45336;-50
2024/02/14 03:09:36;;;;;;;;;7.33;6.67;;;;;-147.14;100.00;58812.66;5037921;28;59621;-47
2024/02/14 03:12:05;;;;;;;;;7.00;7.00;;;;;-147.14;100.00;58812.66;5024840;28;45995;-48
2024/02/14 03:14:32;;;;;;;;;5.33;5.33;;;;;-147.14;100.00;58812.66;5039335;28;45396;-49
2024/02/14 03:16:59;;;;;;;;;6.33;6.33;;;;;-147.14;100.00;58812.66;5042649;28;45351;-48
2024/02/14 03:19:24;;;;;;;;;7.00;7.00;;;;;-147.14;100.00;58812.66;5042107;28;45609;-45
2024/02/14 03:21:50;;;;;;;;;7.00;7.00;;;;;-147.14;100.00;58812.66;5041411;28;75390;-49
2024/02/14 03:24:15;;;;;;;;;4.00;4.00;;;;;-147.14;100.00;58812.66;5041078;28;67719;-46
2024/02/14 03:26:41;;;;;;;;;8.67;6.00;;;;;-147.14;100.00;58812.66;5046047;28;69352;-47
2024/02/14 03:29:07;;;;;;;;;6.00;5.67;;;;;-147.14;100.00;58812.66;5060207;28;45284;-46
2024/02/14 03:31:32;;;;;;;;;6.33;6.33;;;;;-147.14;100.00;58812.66;5058648;28;46138;-46
2024/02/14 03:33:57;;;;;;;;;5.67;5.67;;;;;-147.14;100.00;58812.66;5061085;28;45598;-46
2024/02/14 03:36:24;;;;;;;;;6.67;6.00;;;;;-147.14;100.00;58812.66;5055229;28;66960;-46
2024/02/14 03:38:49;;;;;;;;;5.33;5.33;;;;;-147.14;100.00;58812.66;5050998;28;45473;-47
2024/02/14 03:41:14;;;;;;;;;7.67;6.33;;;;;-147.14;100.00;58812.66;5059596;28;45332;-46
2024/02/14 03:43:40;;;;;;;;;6.67;6.67;;;;;-147.14;100.00;58812.66;5059521;28;73127;-45
2024/02/14 03:46:05;;;;;;;;;5.00;5.00;;;;;-147.14;100.00;58812.66;5044016;28;69475;-48
2024/02/14 03:48:31;;;;;;;;;5.00;5.00;;;;;-147.14;100.00;58812.66;5050718;28;45648;-47
2024/02/14 03:50:57;;;;;;;;;7.67;6.00;;;;;-147.14;100.00;58812.66;5045819;28;45421;-45
2024/02/14 03:53:22;;;;;;;;;4.67;4.33;;;;;-147.14;100.00;58812.66;5037356;28;46049;-45
2024/02/14 03:55:49;;;;;;;;;6.00;6.00;;;;;-147.14;100.00;58812.66;5041977;28;45319;-47
2024/02/14 03:58:16;;;;;;;;;7.33;7.00;;;;;-147.14;100.00;58812.66;5041604;28;45606;-47
2024/02/14 04:00:43;;;;;;;;;7.00;6.00;;;;;-147.14;100.00;58812.66;5053058;28;47124;-49
2024/02/14 04:03:12;;;;;;;;;7.33;6.33;;;;;-147.14;100.00;58812.66;5050716;28;45237;-48
2024/02/14 04:05:37;;;;;;;;;6.00;6.00;;;;;-147.14;100.00;58812.66;5045459;28;45405;-48
2024/02/14 04:08:03;;;;;;;;;6.00;5.00;;;;;-147.14;100.00;58812.66;5050361;28;45245;-46
2024/02/14 04:10:28;;;;;;;;;10.67;7.67;;;;;-147.14;100.00;58812.66;5044821;28;45873;-49
2024/02/14 04:12:53;;;;;;;;;7.33;7.00;;;;;-147.14;100.00;58812.66;5050420;28;45399;-45
2024/02/14 04:15:19;;;;;;;;;4.67;4.67;;;;;-147.14;100.00;58812.66;5040270;28;69118;-47
2024/02/14 04:17:44;;;;;;;;;5.00;5.00;;;;;-147.14;100.00;58812.66;5051825;28;45464;-46
2024/02/14 04:20:10;;;;;;;;;6.00;5.00;;;;;-147.14;100.00;58812.66;5044501;28;75543;-47
2024/02/14 04:22:35;;;;;;;;;7.00;5.67;;;;;-147.14;100.00;58812.66;5059085;28;45339;-45
2024/02/14 04:25:00;;;;;;;;;5.33;5.00;;;;;-147.14;100.00;58812.66;5045199;28;45447;-48
2024/02/14 04:27:27;;;;;;;;;5.67;5.33;;;;;-147.14;100.00;58812.66;5050258;28;45360;-48
2024/02/14 04:29:53;;;;;;;;;4.67;4.67;;;;;-147.14;100.00;58812.66;5058326;28;45407;-47
2024/02/14 04:32:19;;;;;;;;;4.00;4.00;;;;;-147.14;100.00;58812.66;5058987;28;63121;-48
2024/02/14 04:34:44;;;;;;;;;5.67;5.00;;;;;-147.14;100.00;58812.66;5058644;28;45482;-45
2024/02/14 04:37:13;;;;;;;;;4.00;4.00;;;;;-147.14;100.00;58812.66;5059252;28;45441;-45
2024/02/14 04:39:39;;;;;;;;;5.00;5.00;;;;;-147.14;100.00;58812.66;5057163;28;46198;-50
2024/02/14 04:42:04;;;;;;;;;5.00;5.00;;;;;-147.14;100.00;58812.66;5058970;28;45623;-46
2024/02/14 04:44:31;;;;;;;;;7.00;4.00;;;;;-147.14;100.00;58812.66;5054158;28;45301;-46
2024/02/14 04:46:58;;;;;;;;;6.00;5.67;;;;;-147.14;100.00;58812.66;5041275;28;45410;-49
2024/02/14 04:49:24;;;;;;;;;4.00;4.00;;;;;-147.14;100.00;58812.66;5056357;28;46195;-47
2024/02/14 04:51:50;;;;;;;;;5.00;5.00;;;;;-147.14;100.00;58812.66;5059769;28;45460;-47
2024/02/14 04:54:16;;;;;;;;;5.00;5.00;;;;;-147.14;100.00;58812.66;5049446;28;45305;-47
2024/02/14 04:56:42;;;;;;;;;5.33;5.33;;;;;-147.14;100.00;58812.66;5049439;28;45431;-46
2024/02/14 04:59:08;;;;;;;;;10.00;7.00;;;;;-147.14;100.00;58812.66;5043337;28;46134;-49
2024/02/14 05:01:34;;;;;;;;;5.00;5.00;;;;;-147.14;100.00;58812.66;5050980;28;45394;-45
2024/02/14 05:03:59;;;;;;;;;7.00;7.00;;;;;-147.14;100.00;58812.66;5043330;28;45434;-48
2024/02/14 05:06:25;;;;;;;;;6.33;6.00;;;;;-147.14;100.00;58812.66;5039504;28;68891;-45
2024/02/14 05:08:51;;;;;;;;;6.33;6.33;;;;;-147.14;100.00;58812.66;5041010;28;46132;-47
2024/02/14 05:11:17;;;;;;;;;8.33;7.33;;;;;-147.14;100.00;58812.66;5050772;28;45784;-45
2024/02/14 05:13:43;;;;;;;;;6.00;6.00;;;;;-147.14;100.00;58812.66;5043342;28;45324;-47
2024/02/14 05:16:10;;;;;;;;;5.67;5.00;;;;;-147.14;100.00;58812.66;5049188;28;45455;-47
2024/02/14 05:18:38;;;;;;;;;8.00;8.00;;;;;-147.14;100.00;58812.66;5038413;28;46044;-46
2024/02/14 05:21:07;;;;;;;;;8.67;7.67;;;;;-147.14;100.00;58812.66;5058036;28;45331;-47
2024/02/14 05:23:34;;;;;;;;;6.00;6.00;;;;;-147.14;100.00;58812.66;5041933;28;45480;-46
2024/02/14 05:25:59;;;;;;;;;8.33;8.33;;;;;-147.14;100.00;58812.66;5042092;28;45628;-47
2024/02/14 05:28:25;;;;;;;;;9.33;7.33;;;;;-147.14;100.00;58812.66;5026597;28;46142;-47
2024/02/14 05:30:51;;;;;;;;;9.67;8.00;;;;;-147.14;100.00;58812.66;5041043;28;45432;-49
2024/02/14 05:33:18;;;;;;;;;9.00;8.00;;;;;-147.14;100.00;58812.66;5057034;28;61633;-46
2024/02/14 05:35:43;;;;;;;;;6.33;6.00;;;;;-147.14;100.00;58812.66;5057758;28;45443;-45
2024/02/14 05:38:09;;;;;;;;;6.67;6.33;;;;;-147.14;100.00;58812.66;5054472;28;75432;-46
2024/02/14 05:40:37;;;;;;;;;9.00;8.67;;;;;-147.14;100.00;58812.66;5056984;28;73108;-47
2024/02/14 05:43:03;;;;;;;;;6.00;6.00;;;;;-147.14;100.00;58812.66;5057934;28;45371;-47
2024/02/14 05:45:29;;;;;;;;;9.67;6.00;;;;;-147.14;100.00;58812.66;5047272;28;45483;-47
2024/02/14 05:47:54;;;;;;;;;10.67;8.67;;;;;-147.14;100.00;58812.66;5040200;28;46275;-47
2024/02/14 05:50:19;;;;;;;;;7.67;7.00;;;;;-147.14;100.00;58812.66;5049543;28;70838;-46
2024/02/14 05:52:44;;;;;;;;;11.33;9.33;;;;;-147.14;100.00;58812.66;5040076;28;69355;-48
2024/02/14 05:55:10;;;;;;;;;7.00;7.00;;;;;-147.14;100.00;58812.66;5046927;28;70548;-45
2024/02/14 05:57:35;;;;;;;;;6.00;6.00;;;;;-147.14;100.00;58812.66;5039979;28;71962;-48
2024/02/14 06:00:00;;;;;;;;;5.67;5.67;;;;;-147.14;100.00;58812.66;5039063;28;71668;-47
2024/02/14 06:02:26;;;;;;;;;8.33;6.00;;;;;-147.14;100.00;58812.66;5043318;28;68121;-46
2024/02/14 06:04:51;;;;;;;;;9.33;7.00;;;;;-147.14;100.00;58812.66;5048431;28;45391;-48
2024/02/14 06:07:16;;;;;;;;;8.67;7.33;;;;;-147.14;100.00;58812.66;5039884;28;64062;-45
2024/02/14 06:09:42;;;;;;;;;7.00;7.00;;;;;-147.14;100.00;58812.66;5039240;28;72562;-45
2024/02/14 06:12:07;;;;;;;;;8.33;6.67;;;;;-147.14;100.00;58812.66;5043679;28;45325;-49
2024/02/14 06:14:34;;;;;;;;;7.00;7.00;;;;;-147.14;100.00;58812.66;5029346;28;45538;-45
2024/02/14 06:16:59;;;;;;;;;7.00;6.00;;;;;-147.14;100.00;58812.66;5040419;28;46285;-47
2024/02/14 06:19:25;;;;;;;;;9.00;9.00;;;;;-147.14;100.00;58812.66;5039647;28;45379;-48
2024/02/14 06:21:50;;;;;;;;;7.67;6.33;;;;;-147.14;100.00;58812.66;5040662;28;45769;-48
2024/02/14 06:24:15;;;;;;;;;5.67;5.67;;;;;-147.14;100.00;58812.66;5038766;28;70425;-49
2024/02/14 06:26:41;;;;;;;;;7.67;7.00;;;;;-147.14;100.00;58812.66;5035806;28;67253;-47
2024/02/14 06:29:06;;;;;;;;;7.33;7.33;;;;;-147.14;100.00;58812.66;5048211;28;73205;-49
2024/02/14 06:31:31;;;;;;;;;8.67;6.00;;;;;-147.14;100.00;58812.66;5056653;28;45482;-46
2024/02/14 06:33:57;;;;;;;;;7.00;5.67;;;;;-147.14;100.00;58812.66;5040479;28;45230;-47
2024/02/14 06:36:22;;;;;;;;;6.33;4.33;;;;;-147.14;100.00;58812.66;5039074;28;72893;-47
2024/02/14 06:38:47;;;;;;;;;5.00;5.00;;;;;-147.14;100.00;58812.66;5030372;28;72096;-47
2024/02/14 06:41:13;;;;;;;;;7.00;7.00;;;;;-147.14;100.00;58812.66;5037492;28;45325;-47
2024/02/14 06:43:39;;;;;;;;;6.00;4.67;;;;;-147.14;100.00;58812.66;5057010;28;70557;-45
2024/02/14 06:46:05;;;;;;;;;7.33;6.33;;;;;-147.14;100.00;58812.66;5042082;28;45989;-47
2024/02/14 06:48:31;;;;;;;;;8.33;7.00;;;;;-147.14;100.00;58812.66;5022141;28;45350;-48
2024/02/14 06:50:56;;;;;;;;;6.00;6.00;;;;;-147.14;100.00;58812.66;5043710;28;45220;-49
2024/02/14 06:53:22;;;;;;;;;9.00;7.00;;;;;-147.14;100.00;58812.66;5044719;28;70458;-46
2024/02/14 06:55:48;;;;;;;;;4.67;4.67;;;;;-147.14;100.00;58812.66;5055504;28;46925;-46
2024/02/14 06:58:13;;;;;;;;;7.00;5.00;;;;;-147.14;100.00;58812.66;5043007;28;45402;-47
2024/02/14 07:00:39;;;;;;;;;11.67;9.00;;;;;-147.14;100.00;58812.66;5053930;28;68125;-49
2024/02/14 07:03:04;;;;;;;;;7.67;7.67;;;;;-147.14;100.00;58812.66;5042857;28;45425;-46
2024/02/14 07:05:30;;;;;;;;;7.33;7.00;;;;;-147.14;100.00;58812.66;5042941;28;46324;-49
2024/02/14 07:07:56;;;;;;;;;6.33;6.00;;;;;-147.14;100.00;58812.66;5050895;28;70221;-48
2024/02/14 07:10:21;;;;;;;;;10.67;8.00;;;;;-147.14;100.00;58812.66;5057367;28;45367;-47
2024/02/14 07:12:46;;;;;;;;;8.67;7.00;;;;;-147.14;100.00;58812.66;5051657;28;45866;-47
2024/02/14 07:15:12;;;;;;;;;6.33;6.33;;;;;-147.14;100.00;58812.66;5045070;28;58426;-47
2024/02/14 07:17:38;;;;;;;;;11.00;10.00;;;;;-147.14;100.00;58812.66;5042661;28;45319;-49
2024/02/14 07:20:04;;;;;;;;;10.33;9.67;;;;;-147.14;100.00;58812.66;5044635;28;45301;-47
2024/02/14 07:22:30;;;;;;;;;10.00;10.00;;;;;-147.14;100.00;58812.66;5059857;28;45305;-46
2024/02/14 07:24:55;;;;;;;;;12.00;8.67;;;;;-147.14;100.00;58812.66;5039273;28;46915;-46
2024/02/14 07:27:21;;;;;;;;;10.33;10.00;;;;;-147.14;100.00;58812.66;5041617;28;45371;-48
2024/02/14 07:29:46;;;;;;;;;8.00;7.00;;;;;-147.14;100.00;58812.66;5055661;28;45470;-46
2024/02/14 07:32:12;;;;;;;;;9.00;8.00;;;;;-147.14;100.00;58812.66;5059871;28;45343;-45
2024/02/14 07:34:40;;;;;;;;;9.33;9.33;;;;;-147.14;100.00;58812.66;5030378;28;53244;-51
2024/02/14 07:37:06;;;;;;;;;10.00;10.00;;;;;-147.14;100.00;58812.66;5060318;28;45414;-46
2024/02/14 07:39:34;;;;;;;;;11.67;10.00;;;;;-147.14;100.00;58812.66;5041450;28;45456;-49
2024/02/14 07:42:00;;;;;;;;;10.00;10.00;;;;;-147.14;100.00;58812.66;5059532;28;45360;-48
2024/02/14 07:44:25;;;;;;;;;11.33;9.00;;;;;-147.14;100.00;58812.66;5054747;28;45944;-47
2024/02/14 07:46:50;;;;;;;;;8.00;8.00;;;;;-147.14;100.00;58812.66;5041448;28;62710;-46
2024/02/14 07:49:17;;;;;;;;;7.67;7.67;;;;;-147.14;100.00;58812.66;5036779;28;45413;-48
2024/02/14 07:51:42;;;;;;;;;9.33;9.33;;;;;-147.14;100.00;58812.66;5042080;28;45672;-50
2024/02/14 07:54:07;;;;;;;;;9.33;9.33;;;;;-147.14;100.00;58812.66;5050273;28;74319;-47
2024/02/14 07:56:33;;;;;;;;;11.33;10.33;;;;;-147.14;100.00;58812.66;5040947;28;73316;-47
2024/02/14 07:58:59;;;;;;;;;10.33;10.00;;;;;-147.14;100.00;58812.66;5041841;28;45510;-49
2024/02/14 08:01:25;;;;;;;;;11.67;10.33;;;;;-147.14;100.00;58812.66;5058094;28;45327;-48
2024/02/14 08:03:50;;;;;;;;;9.67;9.00;;;;;-147.14;100.00;58812.66;5059125;28;45383;-49
2024/02/14 08:06:15;;;;;;;;;13.00;11.00;;;;;-147.14;100.00;58812.66;5041507;28;72660;-48
2024/02/14 08:08:41;;;;;;;;;15.00;13.33;;;;;-147.14;100.00;58812.66;5056907;28;67613;-46
2024/02/14 08:11:07;;;;;;;;;10.67;10.00;;;;;-147.14;100.00;58812.66;5058574;28;69196;-47
2024/02/14 08:13:32;;;;;;;;;10.67;9.67;;;;;-147.14;100.00;58812.66;5045671;28;49501;-48
2024/02/14 08:16:00;;;;;;;;;9.67;8.33;;;;;-147.14;100.00;58812.66;5031511;28;65608;-48
2024/02/14 08:18:27;;;;;;;;;9.00;8.00;;;;;-147.14;100.00;58812.66;5057905;28;45258;-49
2024/02/14 08:20:53;;;;;;;;;7.00;7.00;;;;;-147.14;100.00;58812.66;5051512;28;45477;-49
2024/02/14 08:23:19;;;;;;;;;8.67;7.00;;;;;-147.14;100.00;58812.66;5043343;28;45451;-51
2024/02/14 08:25:45;;;;;;;;;7.67;7.67;;;;;-147.14;100.00;58812.66;5050540;28;45400;-48
2024/02/14 08:28:11;;;;;;;;;8.00;7.00;;;;;-147.14;100.00;58812.66;5054983;28;45496;-49
2024/02/14 08:30:37;;;;;;;;;5.67;5.67;;;;;-147.14;100.00;58812.66;5060565;28;45330;-47
2024/02/14 08:33:03;;;;;;;;;7.00;7.00;;;;;-147.14;100.00;58812.66;5059276;28;46882;-50
2024/02/14 08:35:28;;;;;;;;;6.33;6.33;;;;;-147.14;100.00;58812.66;5060040;28;45230;-46
2024/02/14 08:37:54;;;;;;;;;7.33;7.00;;;;;-147.14;100.00;58812.66;5039941;28;45662;-48
2024/02/14 08:40:19;;;;;;;;;9.67;7.00;;;;;-147.14;100.00;58812.66;5049747;28;45472;-46
2024/02/14 08:42:44;;;;;;;;;8.67;8.67;;;;;-147.14;100.00;58812.66;5039612;28;74316;-46
2024/02/14 08:45:10;;;;;;;;;11.00;7.33;;;;;-147.14;100.00;58812.66;5049387;28;68517;-49
2024/02/14 08:47:36;;;;;;;;;6.33;6.00;;;;;-147.14;100.00;58812.66;5042058;28;45289;-46
2024/02/14 08:50:03;;;;;;;;;8.00;7.00;;;;;-147.14;100.00;58812.66;5040837;28;45554;-47
2024/02/14 08:52:28;;;;;;;;;5.33;5.33;;;;;-147.14;100.00;58812.66;5036372;28;47482;-49
2024/02/14 08:54:53;;;;;;;;;5.67;5.67;;;;;-147.14;100.00;58812.66;5050025;28;45363;-48
2024/02/14 08:57:19;;;;;;;;;7.00;6.00;;;;;-147.14;100.00;58812.66;5041348;28;45512;-47
2024/02/14 08:59:47;;;;;;;;;4.67;4.33;;;;;-147.14;100.00;58812.66;5045292;28;45438;-46
2024/02/14 09:02:13;;;;;;;;;7.67;7.00;;;;;-147.14;100.00;58812.66;5056116;28;47049;-47
2024/02/14 09:04:38;;;;;;;;;7.67;4.00;;;;;-147.14;100.00;58812.66;5041085;28;45387;-49
2024/02/14 09:07:04;;;;;;;;;3.33;3.33;;;;;-147.14;100.00;58812.66;5041635;28;45327;-47
2024/02/14 09:09:29;;;;;;;;;4.00;4.00;;;;;-147.14;100.00;58812.66;5032550;28;57410;-48
2024/02/14 09:11:55;;;;;;;;;5.67;4.33;;;;;-147.14;100.00;58812.66;5044463;28;75530;-47
2024/02/14 09:14:20;;;;;;;;;4.00;4.00;;;;;-147.14;100.00;58812.66;5049176;28;45341;-46
2024/02/14 09:16:46;;;;;;;;;5.67;4.00;;;;;-147.14;100.00;58812.66;5052909;28;52526;-47
2024/02/14 09:19:12;;;;;;;;;5.33;2.33;;;;;-147.14;100.00;58812.66;5048566;28;45472;-47
2024/02/14 09:21:37;;;;;;;;;5.00;3.00;;;;;-147.14;100.00;58812.66;5057074;28;45339;-46
2024/02/14 09:24:03;;;;;;;;;2.00;2.00;;;;;-147.14;100.00;58812.66;5050472;28;45229;-45
2024/02/14 09:26:29;;;;;;;;;5.33;4.33;;;;;-147.14;100.00;58812.66;5038138;28;45479;-45
2024/02/14 09:28:55;;;;;;;;;4.00;4.00;;;;;-147.14;100.00;58812.66;5011771;28;50618;-48
2024/02/14 09:31:21;;;;;;;;;3.00;2.00;;;;;-147.14;100.00;58812.66;5052501;28;46173;-46
2024/02/14 09:33:49;;;;;;;;;8.00;6.33;;;;;-147.14;100.00;58812.66;5048710;28;45395;-47
2024/02/14 09:36:15;;;;;;;;;5.00;3.00;;;;;-147.14;100.00;58812.66;5054092;28;45288;-49
2024/02/14 09:38:41;;;;;;;;;2.67;2.00;;;;;-147.14;100.00;58812.66;5048752;28;45598;-48
2024/02/14 09:41:23;;;;;;;;;4.00;3.00;;;;;-147.14;100.00;58812.66;5054138;28;45642;-46
2024/02/14 09:43:48;;;;;;;;;4.00;2.00;;;;;-147.14;100.00;58812.66;5033560;28;45265;-47
2024/02/14 09:46:15;;;;;;;;;5.33;3.33;;;;;-147.14;100.00;58812.66;5039799;28;45566;-51
2024/02/14 09:48:44;;;;;;;;;4.33;3.00;;;;;-147.14;100.00;58812.66;5058789;28;45449;-50
2024/02/14 09:51:10;;;;;;;;;2.00;2.00;;;;;-147.14;100.00;58812.66;5055821;28;46118;-48
2024/02/14 09:53:36;;;;;;;;;4.00;3.00;;;;;-147.14;100.00;58812.66;5049390;28;47881;-46
2024/02/14 09:56:02;;;;;;;;;4.00;3.00;;;;;-147.14;100.00;58812.66;5040508;28;65921;-49
2024/02/14 09:58:28;;;;;;;;;5.33;4.00;;;;;-147.14;100.00;58812.66;5040218;28;45424;-46
2024/02/14 10:00:59;;;;;;;;;3.33;2.67;;;;;-147.14;100.00;58812.66;5029891;28;46134;-50
2024/02/14 10:03:25;;;;;;;;;2.67;2.67;;;;;-147.14;100.00;58812.66;5040246;28;45316;-47
2024/02/14 10:05:52;;;;;;;;;1.67;1.67;;;;;-147.14;100.00;58812.66;5040816;28;45324;-49
2024/02/14 10:08:18;;;;;;;;;3.00;3.00;;;;;-147.14;100.00;58812.66;5051780;28;45353;-48
2024/02/14 10:10:43;;;;;;;;;1.67;1.67;;;;;-147.14;100.00;58812.66;5040271;28;45575;-47
2024/02/14 10:13:09;;;;;;;;;4.00;3.00;;;;;-147.14;100.00;58812.66;5040806;28;45368;-47
2024/02/14 10:15:34;;;;;;;;;1.67;1.67;;;;;-147.14;100.00;58812.66;5040315;28;45752;-49
2024/02/14 10:18:00;;;;;;;;;3.67;2.00;;;;;-147.14;100.00;58812.66;5041309;28;45483;-50
2024/02/14 10:20:30;;;;;;;;;3.33;1.67;;;;;-147.14;100.00;58812.66;5049466;28;45303;-49
2024/02/14 10:23:03;;;;;;;;;1.33;1.33;;;;;-147.14;100.00;58812.66;5027994;28;45584;-49
2024/02/14 10:25:29;;;;;;;;;2.33;1.67;;;;;-147.14;100.00;58812.66;5039999;28;45444;-44
2024/02/14 10:27:54;;;;;;;;;1.67;1.67;;;;;-147.14;100.00;58812.66;5033349;28;45576;-46
2024/02/14 10:30:21;;;;;;;;;1.67;1.67;;;;;-147.14;100.00;58812.66;5054906;28;75403;-46
2024/02/14 10:32:49;;;;;;;;;1.67;1.67;;;;;-147.14;100.00;58812.66;5028811;28;45353;-47
2024/02/14 10:35:15;;;;;;;;;2.33;1.33;;;;;-147.14;100.00;58812.66;5055605;28;45348;-45
2024/02/14 10:37:41;;;;;;;;;3.00;1.67;;;;;-147.14;100.00;58812.66;5035338;28;45297;-43
2024/02/14 10:40:08;;;;;;;;;4.67;3.00;;;;;-147.14;100.00;58812.66;5054333;28;46237;-47
2024/02/14 10:42:34;;;;;;;;;1.00;1.00;;;;;-147.14;100.00;58812.66;5056041;28;45494;-44
2024/02/14 10:45:00;;;;;;;;;2.00;1.67;;;;;-147.14;100.00;58812.66;5050049;28;45526;-48
2024/02/14 10:47:31;;;;;;;;;1.67;1.00;;;;;-147.14;100.00;58812.66;5039831;28;45425;-46
2024/02/14 10:50:05;;;;;;;;;1.33;0.67;;;;;-147.14;100.00;58812.66;5057485;28;46399;-45
2024/02/14 10:52:35;;;;;;;;;0.00;0.00;;;;;-147.14;100.00;58812.66;5037167;28;45393;-47
2024/02/14 10:55:05;;;;;;;;;2.00;2.00;;;;;-147.14;100.00;58812.66;5057623;28;45442;-48
2024/02/14 10:57:34;;;;;;;;;5.33;4.00;;;;;-147.14;100.00;58812.66;5055576;28;45282;-50
2024/02/14 11:00:02;;;;;;;;;4.00;3.33;;;;;-147.14;100.00;58812.66;5050531;28;46046;-47
2024/02/14 11:02:32;;;;;;;;;1.67;1.67;;;;;-147.14;100.00;58812.66;5039513;28;45468;-49